sensor_id;sensor_type;location;lat;lon;timestamp;P1;durP1;ratioP1;P2;durP2;ratioP2
2299;SDS011;1158;48.750;9.078;2023-03-21T00:01:11;3.53;;;2.40;;
2299;SDS011;1158;48.750;9.078;2023-03-21T00:03:39;3.67;;;2.50;;
2299;SDS011;1158;48.750;9.078;2023-03-21T00:06:08;5.53;;;2.93;;
2299;SDS011;1158;48.750;9.078;2023-03-21T00:08:36;7.90;;;3.70;;
2299;SDS011;1158;48.750;9.078;2023-03-21T00:11:06;10.60;;;2.60;;
2299;SDS011;1158;48.750;9.078;2023-03-21T00:13:34;6.20;;;3.10;;
2299;SDS011;1158;48.750;9.078;2023-03-21T00:16:03;3.80;;;2.50;;
2299;SDS011;1158;48.750;9.078;2023-03-21T00:18:30;8.77;;;3.50;;
2299;SDS011;1158;48.750;9.078;2023-03-21T00:21:01;2.97;;;2.00;;
2299;SDS011;1158;48.750;9.078;2023-03-21T00:23:29;3.40;;;2.70;;
2299;SDS011;1158;48.750;9.078;2023-03-21T00:25:57;7.83;;;2.83;;
2299;SDS011;1158;48.750;9.078;2023-03-21T00:28:26;8.13;;;2.83;;
2299;SDS011;1158;48.750;9.078;2023-03-21T00:30:55;3.77;;;2.80;;
2299;SDS011;1158;48.750;9.078;2023-03-21T00:33:23;3.20;;;2.37;;
2299;SDS011;1158;48.750;9.078;2023-03-21T00:35:49;5.13;;;2.60;;
2299;SDS011;1158;48.750;9.078;2023-03-21T00:38:17;5.37;;;2.60;;
2299;SDS011;1158;48.750;9.078;2023-03-21T00:40:44;4.03;;;2.47;;
2299;SDS011;1158;48.750;9.078;2023-03-21T00:43:11;4.53;;;2.87;;
2299;SDS011;1158;48.750;9.078;2023-03-21T00:45:39;6.17;;;2.80;;
2299;SDS011;1158;48.750;9.078;2023-03-21T00:48:07;3.93;;;2.67;;
2299;SDS011;1158;48.750;9.078;2023-03-21T00:50:34;3.97;;;2.63;;
2299;SDS011;1158;48.750;9.078;2023-03-21T00:53:01;2.77;;;2.27;;
2299;SDS011;1158;48.750;9.078;2023-03-21T00:55:27;4.43;;;2.50;;
2299;SDS011;1158;48.750;9.078;2023-03-21T00:57:54;3.57;;;2.50;;
2299;SDS011;1158;48.750;9.078;2023-03-21T01:00:21;4.30;;;2.67;;
2299;SDS011;1158;48.750;9.078;2023-03-21T01:02:49;6.53;;;2.53;;
2299;SDS011;1158;48.750;9.078;2023-03-21T01:05:21;4.53;;;2.27;;
2299;SDS011;1158;48.750;9.078;2023-03-21T01:08:08;4.87;;;2.70;;
2299;SDS011;1158;48.750;9.078;2023-03-21T01:10:36;3.67;;;2.60;;
2299;SDS011;1158;48.750;9.078;2023-03-21T01:13:04;5.07;;;2.97;;
2299;SDS011;1158;48.750;9.078;2023-03-21T01:15:31;3.87;;;2.43;;
2299;SDS011;1158;48.750;9.078;2023-03-21T01:17:59;5.63;;;2.80;;
2299;SDS011;1158;48.750;9.078;2023-03-21T01:20:26;3.97;;;2.67;;
2299;SDS011;1158;48.750;9.078;2023-03-21T01:22:53;4.93;;;2.97;;
2299;SDS011;1158;48.750;9.078;2023-03-21T01:25:20;4.00;;;2.97;;
2299;SDS011;1158;48.750;9.078;2023-03-21T01:27:47;3.90;;;2.60;;
2299;SDS011;1158;48.750;9.078;2023-03-21T01:30:13;3.97;;;2.80;;
2299;SDS011;1158;48.750;9.078;2023-03-21T01:32:40;4.03;;;2.57;;
2299;SDS011;1158;48.750;9.078;2023-03-21T01:35:08;4.27;;;2.83;;
2299;SDS011;1158;48.750;9.078;2023-03-21T01:37:35;4.03;;;2.63;;
2299;SDS011;1158;48.750;9.078;2023-03-21T01:40:02;9.60;;;2.90;;
2299;SDS011;1158;48.750;9.078;2023-03-21T01:42:30;4.90;;;2.60;;
2299;SDS011;1158;48.750;9.078;2023-03-21T01:44:58;8.60;;;3.07;;
2299;SDS011;1158;48.750;9.078;2023-03-21T01:47:27;7.43;;;2.70;;
2299;SDS011;1158;48.750;9.078;2023-03-21T01:49:54;6.57;;;3.03;;
2299;SDS011;1158;48.750;9.078;2023-03-21T01:52:25;4.03;;;2.43;;
2299;SDS011;1158;48.750;9.078;2023-03-21T01:54:54;4.53;;;3.00;;
2299;SDS011;1158;48.750;9.078;2023-03-21T01:57:23;3.43;;;2.53;;
2299;SDS011;1158;48.750;9.078;2023-03-21T01:59:56;4.30;;;2.73;;
2299;SDS011;1158;48.750;9.078;2023-03-21T02:02:27;5.13;;;2.70;;
2299;SDS011;1158;48.750;9.078;2023-03-21T02:04:55;3.80;;;2.90;;
2299;SDS011;1158;48.750;9.078;2023-03-21T02:07:26;3.60;;;2.73;;
2299;SDS011;1158;48.750;9.078;2023-03-21T02:09:55;5.63;;;3.30;;
2299;SDS011;1158;48.750;9.078;2023-03-21T02:12:23;6.50;;;3.00;;
2299;SDS011;1158;48.750;9.078;2023-03-21T02:14:51;5.30;;;2.97;;
2299;SDS011;1158;48.750;9.078;2023-03-21T02:17:21;4.80;;;2.93;;
2299;SDS011;1158;48.750;9.078;2023-03-21T02:23:14;5.03;;;2.80;;
2299;SDS011;1158;48.750;9.078;2023-03-21T02:26:01;5.67;;;3.13;;
2299;SDS011;1158;48.750;9.078;2023-03-21T02:28:46;3.63;;;2.50;;
2299;SDS011;1158;48.750;9.078;2023-03-21T02:31:17;6.00;;;2.80;;
2299;SDS011;1158;48.750;9.078;2023-03-21T02:34:10;3.80;;;3.00;;
2299;SDS011;1158;48.750;9.078;2023-03-21T02:37:14;6.37;;;2.90;;
2299;SDS011;1158;48.750;9.078;2023-03-21T02:39:50;6.63;;;3.00;;
2299;SDS011;1158;48.750;9.078;2023-03-21T02:42:26;10.63;;;3.33;;
2299;SDS011;1158;48.750;9.078;2023-03-21T02:44:57;4.33;;;3.00;;
2299;SDS011;1158;48.750;9.078;2023-03-21T02:47:28;5.03;;;2.90;;
2299;SDS011;1158;48.750;9.078;2023-03-21T02:50:02;3.40;;;2.90;;
2299;SDS011;1158;48.750;9.078;2023-03-21T02:52:35;4.93;;;3.30;;
2299;SDS011;1158;48.750;9.078;2023-03-21T02:55:03;3.47;;;2.70;;
2299;SDS011;1158;48.750;9.078;2023-03-21T02:57:37;5.70;;;2.70;;
2299;SDS011;1158;48.750;9.078;2023-03-21T03:00:08;5.80;;;3.67;;
2299;SDS011;1158;48.750;9.078;2023-03-21T03:02:38;9.70;;;2.90;;
2299;SDS011;1158;48.750;9.078;2023-03-21T03:05:15;3.73;;;3.03;;
2299;SDS011;1158;48.750;9.078;2023-03-21T03:10:45;4.87;;;3.30;;
2299;SDS011;1158;48.750;9.078;2023-03-21T03:13:23;7.40;;;3.60;;
2299;SDS011;1158;48.750;9.078;2023-03-21T03:16:05;6.70;;;2.97;;
2299;SDS011;1158;48.750;9.078;2023-03-21T03:18:40;4.60;;;2.77;;
2299;SDS011;1158;48.750;9.078;2023-03-21T03:21:16;6.40;;;3.63;;
2299;SDS011;1158;48.750;9.078;2023-03-21T03:23:49;7.73;;;3.20;;
2299;SDS011;1158;48.750;9.078;2023-03-21T03:26:18;7.20;;;2.90;;
2299;SDS011;1158;48.750;9.078;2023-03-21T03:28:49;4.60;;;3.10;;
2299;SDS011;1158;48.750;9.078;2023-03-21T03:31:19;5.10;;;3.40;;
2299;SDS011;1158;48.750;9.078;2023-03-21T03:33:50;5.50;;;3.20;;
2299;SDS011;1158;48.750;9.078;2023-03-21T03:36:19;3.97;;;3.30;;
2299;SDS011;1158;48.750;9.078;2023-03-21T03:38:53;4.50;;;3.23;;
2299;SDS011;1158;48.750;9.078;2023-03-21T03:41:22;4.50;;;3.13;;
2299;SDS011;1158;48.750;9.078;2023-03-21T03:43:52;5.63;;;2.80;;
2299;SDS011;1158;48.750;9.078;2023-03-21T03:46:22;8.87;;;3.13;;
2299;SDS011;1158;48.750;9.078;2023-03-21T03:48:53;3.50;;;2.47;;
2299;SDS011;1158;48.750;9.078;2023-03-21T03:51:24;4.73;;;3.13;;
2299;SDS011;1158;48.750;9.078;2023-03-21T03:53:56;5.17;;;3.40;;
2299;SDS011;1158;48.750;9.078;2023-03-21T03:56:25;5.50;;;3.20;;
2299;SDS011;1158;48.750;9.078;2023-03-21T03:58:54;5.57;;;3.13;;
2299;SDS011;1158;48.750;9.078;2023-03-21T04:01:21;6.70;;;2.97;;
2299;SDS011;1158;48.750;9.078;2023-03-21T04:03:48;5.67;;;3.50;;
2299;SDS011;1158;48.750;9.078;2023-03-21T04:06:15;5.30;;;3.40;;
2299;SDS011;1158;48.750;9.078;2023-03-21T04:08:43;4.80;;;3.67;;
2299;SDS011;1158;48.750;9.078;2023-03-21T04:11:11;5.90;;;3.47;;
2299;SDS011;1158;48.750;9.078;2023-03-21T04:13:39;5.80;;;3.43;;
2299;SDS011;1158;48.750;9.078;2023-03-21T04:16:07;7.50;;;4.50;;
2299;SDS011;1158;48.750;9.078;2023-03-21T04:18:34;6.13;;;3.90;;
2299;SDS011;1158;48.750;9.078;2023-03-21T04:21:05;8.10;;;4.30;;
2299;SDS011;1158;48.750;9.078;2023-03-21T04:23:33;11.47;;;3.97;;
2299;SDS011;1158;48.750;9.078;2023-03-21T04:26:00;6.03;;;3.53;;
2299;SDS011;1158;48.750;9.078;2023-03-21T04:28:29;8.40;;;4.87;;
2299;SDS011;1158;48.750;9.078;2023-03-21T04:30:55;7.17;;;4.47;;
2299;SDS011;1158;48.750;9.078;2023-03-21T04:33:22;5.07;;;3.67;;
2299;SDS011;1158;48.750;9.078;2023-03-21T04:35:50;10.00;;;4.07;;
2299;SDS011;1158;48.750;9.078;2023-03-21T04:38:20;8.83;;;3.80;;
2299;SDS011;1158;48.750;9.078;2023-03-21T04:40:46;6.00;;;3.53;;
2299;SDS011;1158;48.750;9.078;2023-03-21T04:43:13;5.13;;;3.80;;
2299;SDS011;1158;48.750;9.078;2023-03-21T04:45:44;5.73;;;3.73;;
2299;SDS011;1158;48.750;9.078;2023-03-21T04:48:11;5.47;;;4.00;;
2299;SDS011;1158;48.750;9.078;2023-03-21T04:50:38;5.73;;;3.73;;
2299;SDS011;1158;48.750;9.078;2023-03-21T04:53:05;7.53;;;3.97;;
2299;SDS011;1158;48.750;9.078;2023-03-21T04:55:31;6.90;;;4.30;;
2299;SDS011;1158;48.750;9.078;2023-03-21T04:57:58;4.90;;;3.23;;
2299;SDS011;1158;48.750;9.078;2023-03-21T05:00:25;4.93;;;3.90;;
2299;SDS011;1158;48.750;9.078;2023-03-21T05:02:53;5.53;;;3.60;;
2299;SDS011;1158;48.750;9.078;2023-03-21T05:05:21;7.07;;;4.87;;
2299;SDS011;1158;48.750;9.078;2023-03-21T05:07:48;5.07;;;3.77;;
2299;SDS011;1158;48.750;9.078;2023-03-21T05:10:15;5.67;;;3.97;;
2299;SDS011;1158;48.750;9.078;2023-03-21T05:12:42;5.27;;;4.13;;
2299;SDS011;1158;48.750;9.078;2023-03-21T05:15:08;7.80;;;4.40;;
2299;SDS011;1158;48.750;9.078;2023-03-21T05:17:35;8.80;;;5.83;;
2299;SDS011;1158;48.750;9.078;2023-03-21T05:20:04;9.50;;;5.87;;
2299;SDS011;1158;48.750;9.078;2023-03-21T05:22:33;7.80;;;5.33;;
2299;SDS011;1158;48.750;9.078;2023-03-21T05:25:05;9.33;;;5.43;;
2299;SDS011;1158;48.750;9.078;2023-03-21T05:27:32;8.17;;;5.40;;
2299;SDS011;1158;48.750;9.078;2023-03-21T05:30:00;9.40;;;4.37;;
2299;SDS011;1158;48.750;9.078;2023-03-21T05:32:29;11.30;;;5.97;;
2299;SDS011;1158;48.750;9.078;2023-03-21T05:34:56;9.17;;;5.53;;
2299;SDS011;1158;48.750;9.078;2023-03-21T05:37:24;9.70;;;5.27;;
2299;SDS011;1158;48.750;9.078;2023-03-21T05:39:51;10.00;;;5.37;;
2299;SDS011;1158;48.750;9.078;2023-03-21T05:42:18;6.57;;;5.20;;
2299;SDS011;1158;48.750;9.078;2023-03-21T05:44:45;8.00;;;5.40;;
2299;SDS011;1158;48.750;9.078;2023-03-21T05:47:12;8.03;;;5.43;;
2299;SDS011;1158;48.750;9.078;2023-03-21T05:49:40;12.20;;;5.33;;
2299;SDS011;1158;48.750;9.078;2023-03-21T05:52:07;8.00;;;5.63;;
2299;SDS011;1158;48.750;9.078;2023-03-21T05:54:36;6.60;;;4.93;;
2299;SDS011;1158;48.750;9.078;2023-03-21T05:57:03;7.90;;;5.10;;
2299;SDS011;1158;48.750;9.078;2023-03-21T05:59:30;7.67;;;4.80;;
2299;SDS011;1158;48.750;9.078;2023-03-21T06:01:56;11.40;;;5.53;;
2299;SDS011;1158;48.750;9.078;2023-03-21T06:04:23;7.13;;;5.03;;
2299;SDS011;1158;48.750;9.078;2023-03-21T06:06:50;7.00;;;5.00;;
2299;SDS011;1158;48.750;9.078;2023-03-21T06:09:17;8.57;;;5.80;;
2299;SDS011;1158;48.750;9.078;2023-03-21T06:11:46;7.37;;;5.67;;
2299;SDS011;1158;48.750;9.078;2023-03-21T06:14:16;10.67;;;5.53;;
2299;SDS011;1158;48.750;9.078;2023-03-21T06:16:43;7.13;;;5.40;;
2299;SDS011;1158;48.750;9.078;2023-03-21T06:19:10;11.80;;;5.30;;
2299;SDS011;1158;48.750;9.078;2023-03-21T06:21:37;9.00;;;5.17;;
2299;SDS011;1158;48.750;9.078;2023-03-21T06:24:04;9.30;;;5.67;;
2299;SDS011;1158;48.750;9.078;2023-03-21T06:26:31;7.13;;;4.83;;
2299;SDS011;1158;48.750;9.078;2023-03-21T06:28:59;9.00;;;5.30;;
2299;SDS011;1158;48.750;9.078;2023-03-21T06:31:26;9.23;;;5.20;;
2299;SDS011;1158;48.750;9.078;2023-03-21T06:33:53;10.00;;;5.47;;
2299;SDS011;1158;48.750;9.078;2023-03-21T06:36:20;7.30;;;5.27;;
2299;SDS011;1158;48.750;9.078;2023-03-21T06:38:46;7.40;;;5.27;;
2299;SDS011;1158;48.750;9.078;2023-03-21T06:41:13;8.20;;;5.20;;
2299;SDS011;1158;48.750;9.078;2023-03-21T06:43:41;5.80;;;4.60;;
2299;SDS011;1158;48.750;9.078;2023-03-21T06:46:09;6.00;;;4.43;;
2299;SDS011;1158;48.750;9.078;2023-03-21T06:48:35;6.93;;;4.43;;
2299;SDS011;1158;48.750;9.078;2023-03-21T06:51:08;7.73;;;4.07;;
2299;SDS011;1158;48.750;9.078;2023-03-21T06:53:35;5.57;;;3.97;;
2299;SDS011;1158;48.750;9.078;2023-03-21T06:56:02;6.73;;;3.93;;
2299;SDS011;1158;48.750;9.078;2023-03-21T06:58:29;8.13;;;3.73;;
2299;SDS011;1158;48.750;9.078;2023-03-21T07:00:57;6.30;;;3.90;;
2299;SDS011;1158;48.750;9.078;2023-03-21T07:03:25;7.40;;;3.60;;
2299;SDS011;1158;48.750;9.078;2023-03-21T07:05:52;6.50;;;3.80;;
2299;SDS011;1158;48.750;9.078;2023-03-21T07:08:18;5.30;;;3.50;;
2299;SDS011;1158;48.750;9.078;2023-03-21T07:10:45;4.70;;;2.80;;
2299;SDS011;1158;48.750;9.078;2023-03-21T07:13:12;4.17;;;3.33;;
2299;SDS011;1158;48.750;9.078;2023-03-21T07:15:39;4.00;;;2.63;;
2299;SDS011;1158;48.750;9.078;2023-03-21T07:18:06;4.57;;;3.47;;
2299;SDS011;1158;48.750;9.078;2023-03-21T07:20:35;4.60;;;3.30;;
2299;SDS011;1158;48.750;9.078;2023-03-21T07:23:03;5.17;;;3.03;;
2299;SDS011;1158;48.750;9.078;2023-03-21T07:25:30;4.53;;;2.77;;
2299;SDS011;1158;48.750;9.078;2023-03-21T07:27:57;4.00;;;2.50;;
2299;SDS011;1158;48.750;9.078;2023-03-21T07:30:24;5.57;;;2.60;;
2299;SDS011;1158;48.750;9.078;2023-03-21T07:32:51;3.70;;;2.60;;
2299;SDS011;1158;48.750;9.078;2023-03-21T07:35:18;4.40;;;2.80;;
2299;SDS011;1158;48.750;9.078;2023-03-21T07:37:47;4.90;;;2.80;;
2299;SDS011;1158;48.750;9.078;2023-03-21T07:40:13;4.30;;;2.63;;
2299;SDS011;1158;48.750;9.078;2023-03-21T07:42:40;3.27;;;2.50;;
2299;SDS011;1158;48.750;9.078;2023-03-21T07:45:07;3.37;;;2.70;;
2299;SDS011;1158;48.750;9.078;2023-03-21T07:47:35;4.80;;;2.87;;
2299;SDS011;1158;48.750;9.078;2023-03-21T07:50:02;4.13;;;2.47;;
2299;SDS011;1158;48.750;9.078;2023-03-21T07:52:29;5.93;;;2.83;;
2299;SDS011;1158;48.750;9.078;2023-03-21T07:54:58;5.93;;;2.80;;
2299;SDS011;1158;48.750;9.078;2023-03-21T07:57:25;4.57;;;2.47;;
2299;SDS011;1158;48.750;9.078;2023-03-21T07:59:51;5.53;;;2.60;;
2299;SDS011;1158;48.750;9.078;2023-03-21T08:02:18;4.60;;;2.50;;
2299;SDS011;1158;48.750;9.078;2023-03-21T08:04:45;4.53;;;2.70;;
2299;SDS011;1158;48.750;9.078;2023-03-21T08:07:11;4.50;;;2.70;;
2299;SDS011;1158;48.750;9.078;2023-03-21T08:09:38;4.97;;;2.60;;
2299;SDS011;1158;48.750;9.078;2023-03-21T08:12:06;4.87;;;2.23;;
2299;SDS011;1158;48.750;9.078;2023-03-21T08:14:33;4.30;;;2.27;;
2299;SDS011;1158;48.750;9.078;2023-03-21T08:17:00;4.80;;;2.80;;
2299;SDS011;1158;48.750;9.078;2023-03-21T08:19:27;3.63;;;2.20;;
2299;SDS011;1158;48.750;9.078;2023-03-21T08:21:55;3.40;;;2.27;;
2299;SDS011;1158;48.750;9.078;2023-03-21T08:24:23;4.23;;;2.57;;
2299;SDS011;1158;48.750;9.078;2023-03-21T08:26:50;4.30;;;2.43;;
2299;SDS011;1158;48.750;9.078;2023-03-21T08:29:18;3.90;;;2.70;;
2299;SDS011;1158;48.750;9.078;2023-03-21T08:31:45;4.63;;;2.57;;
2299;SDS011;1158;48.750;9.078;2023-03-21T08:34:12;3.20;;;2.60;;
2299;SDS011;1158;48.750;9.078;2023-03-21T08:36:39;7.60;;;2.97;;
2299;SDS011;1158;48.750;9.078;2023-03-21T08:39:06;5.73;;;2.50;;
2299;SDS011;1158;48.750;9.078;2023-03-21T08:41:33;3.80;;;2.20;;
2299;SDS011;1158;48.750;9.078;2023-03-21T08:44:01;3.80;;;2.13;;
2299;SDS011;1158;48.750;9.078;2023-03-21T08:46:29;3.80;;;2.37;;
2299;SDS011;1158;48.750;9.078;2023-03-21T08:48:56;3.57;;;2.20;;
2299;SDS011;1158;48.750;9.078;2023-03-21T08:51:23;3.23;;;1.73;;
2299;SDS011;1158;48.750;9.078;2023-03-21T08:53:50;3.93;;;2.07;;
2299;SDS011;1158;48.750;9.078;2023-03-21T08:56:16;3.70;;;2.50;;
2299;SDS011;1158;48.750;9.078;2023-03-21T08:58:43;2.80;;;1.50;;
2299;SDS011;1158;48.750;9.078;2023-03-21T09:01:11;3.37;;;1.60;;
2299;SDS011;1158;48.750;9.078;2023-03-21T09:03:40;3.07;;;1.90;;
2299;SDS011;1158;48.750;9.078;2023-03-21T09:06:07;3.03;;;1.87;;
2299;SDS011;1158;48.750;9.078;2023-03-21T09:08:35;3.33;;;2.20;;
2299;SDS011;1158;48.750;9.078;2023-03-21T09:11:02;4.00;;;1.83;;
2299;SDS011;1158;48.750;9.078;2023-03-21T09:13:28;3.00;;;1.90;;
2299;SDS011;1158;48.750;9.078;2023-03-21T09:15:55;2.80;;;1.77;;
2299;SDS011;1158;48.750;9.078;2023-03-21T09:18:25;3.47;;;1.70;;
2299;SDS011;1158;48.750;9.078;2023-03-21T09:21:07;3.47;;;2.00;;
2299;SDS011;1158;48.750;9.078;2023-03-21T09:23:36;4.13;;;1.93;;
2299;SDS011;1158;48.750;9.078;2023-03-21T09:26:03;3.10;;;1.83;;
2299;SDS011;1158;48.750;9.078;2023-03-21T09:28:31;2.33;;;1.40;;
2299;SDS011;1158;48.750;9.078;2023-03-21T09:30:59;4.00;;;1.97;;
2299;SDS011;1158;48.750;9.078;2023-03-21T09:33:26;2.93;;;1.57;;
2299;SDS011;1158;48.750;9.078;2023-03-21T09:35:54;3.83;;;1.70;;
2299;SDS011;1158;48.750;9.078;2023-03-21T09:38:23;4.17;;;1.60;;
2299;SDS011;1158;48.750;9.078;2023-03-21T09:40:55;3.63;;;1.80;;
2299;SDS011;1158;48.750;9.078;2023-03-21T09:43:33;3.20;;;1.80;;
2299;SDS011;1158;48.750;9.078;2023-03-21T09:46:08;2.63;;;1.60;;
2299;SDS011;1158;48.750;9.078;2023-03-21T09:48:43;2.33;;;1.70;;
2299;SDS011;1158;48.750;9.078;2023-03-21T09:51:16;4.37;;;1.80;;
2299;SDS011;1158;48.750;9.078;2023-03-21T09:53:46;2.73;;;2.03;;
2299;SDS011;1158;48.750;9.078;2023-03-21T09:56:15;3.20;;;1.63;;
2299;SDS011;1158;48.750;9.078;2023-03-21T09:58:43;3.40;;;1.60;;
2299;SDS011;1158;48.750;9.078;2023-03-21T10:01:17;3.33;;;2.00;;
2299;SDS011;1158;48.750;9.078;2023-03-21T10:03:51;5.20;;;1.90;;
2299;SDS011;1158;48.750;9.078;2023-03-21T10:06:19;7.03;;;1.90;;
2299;SDS011;1158;48.750;9.078;2023-03-21T10:08:54;2.67;;;1.60;;
2299;SDS011;1158;48.750;9.078;2023-03-21T10:11:25;2.20;;;1.50;;
2299;SDS011;1158;48.750;9.078;2023-03-21T10:13:55;2.90;;;1.40;;
2299;SDS011;1158;48.750;9.078;2023-03-21T10:16:26;2.83;;;1.30;;
2299;SDS011;1158;48.750;9.078;2023-03-21T10:18:55;2.90;;;2.00;;
2299;SDS011;1158;48.750;9.078;2023-03-21T10:21:24;3.23;;;1.70;;
2299;SDS011;1158;48.750;9.078;2023-03-21T10:23:55;2.50;;;1.47;;
2299;SDS011;1158;48.750;9.078;2023-03-21T10:26:23;3.30;;;1.40;;
2299;SDS011;1158;48.750;9.078;2023-03-21T10:28:52;3.50;;;1.60;;
2299;SDS011;1158;48.750;9.078;2023-03-21T10:31:23;2.50;;;1.27;;
2299;SDS011;1158;48.750;9.078;2023-03-21T10:33:51;2.57;;;1.30;;
2299;SDS011;1158;48.750;9.078;2023-03-21T10:36:21;2.40;;;1.50;;
2299;SDS011;1158;48.750;9.078;2023-03-21T10:38:52;2.90;;;1.30;;
2299;SDS011;1158;48.750;9.078;2023-03-21T10:41:22;3.07;;;1.50;;
2299;SDS011;1158;48.750;9.078;2023-03-21T10:44:02;2.13;;;1.53;;
2299;SDS011;1158;48.750;9.078;2023-03-21T10:46:31;3.27;;;2.13;;
2299;SDS011;1158;48.750;9.078;2023-03-21T10:48:59;2.27;;;1.60;;
2299;SDS011;1158;48.750;9.078;2023-03-21T10:51:26;4.03;;;1.70;;
2299;SDS011;1158;48.750;9.078;2023-03-21T10:53:58;3.10;;;1.80;;
2299;SDS011;1158;48.750;9.078;2023-03-21T10:56:29;2.97;;;1.50;;
2299;SDS011;1158;48.750;9.078;2023-03-21T10:59:00;3.17;;;1.40;;
2299;SDS011;1158;48.750;9.078;2023-03-21T11:01:28;2.90;;;1.43;;
2299;SDS011;1158;48.750;9.078;2023-03-21T11:04:00;3.97;;;2.20;;
2299;SDS011;1158;48.750;9.078;2023-03-21T11:06:35;3.47;;;2.30;;
2299;SDS011;1158;48.750;9.078;2023-03-21T11:09:06;3.13;;;2.00;;
2299;SDS011;1158;48.750;9.078;2023-03-21T11:11:37;2.90;;;1.70;;
2299;SDS011;1158;48.750;9.078;2023-03-21T11:14:07;3.73;;;1.90;;
2299;SDS011;1158;48.750;9.078;2023-03-21T11:16:49;2.50;;;1.80;;
2299;SDS011;1158;48.750;9.078;2023-03-21T11:19:16;5.17;;;2.67;;
2299;SDS011;1158;48.750;9.078;2023-03-21T11:21:44;2.90;;;1.90;;
2299;SDS011;1158;48.750;9.078;2023-03-21T11:24:13;3.73;;;2.10;;
2299;SDS011;1158;48.750;9.078;2023-03-21T11:26:42;2.93;;;1.90;;
2299;SDS011;1158;48.750;9.078;2023-03-21T11:29:23;3.13;;;1.80;;
2299;SDS011;1158;48.750;9.078;2023-03-21T11:31:56;4.53;;;2.27;;
2299;SDS011;1158;48.750;9.078;2023-03-21T11:34:27;3.40;;;1.80;;
2299;SDS011;1158;48.750;9.078;2023-03-21T11:36:58;2.60;;;1.80;;
2299;SDS011;1158;48.750;9.078;2023-03-21T11:39:29;2.30;;;1.60;;
2299;SDS011;1158;48.750;9.078;2023-03-21T11:41:57;2.37;;;1.60;;
2299;SDS011;1158;48.750;9.078;2023-03-21T11:44:25;2.93;;;1.93;;
2299;SDS011;1158;48.750;9.078;2023-03-21T11:46:54;4.00;;;1.87;;
2299;SDS011;1158;48.750;9.078;2023-03-21T11:49:21;4.20;;;1.87;;
2299;SDS011;1158;48.750;9.078;2023-03-21T11:51:50;5.07;;;2.43;;
2299;SDS011;1158;48.750;9.078;2023-03-21T11:57:34;4.57;;;2.10;;
2299;SDS011;1158;48.750;9.078;2023-03-21T12:00:10;5.90;;;2.50;;
2299;SDS011;1158;48.750;9.078;2023-03-21T12:02:47;4.33;;;2.53;;
2299;SDS011;1158;48.750;9.078;2023-03-21T12:05:34;4.40;;;3.27;;
2299;SDS011;1158;48.750;9.078;2023-03-21T12:08:04;4.90;;;3.10;;
2299;SDS011;1158;48.750;9.078;2023-03-21T12:10:41;5.10;;;3.00;;
2299;SDS011;1158;48.750;9.078;2023-03-21T12:13:17;5.40;;;3.43;;
2299;SDS011;1158;48.750;9.078;2023-03-21T12:15:56;4.23;;;3.03;;
2299;SDS011;1158;48.750;9.078;2023-03-21T12:18:36;5.70;;;2.77;;
2299;SDS011;1158;48.750;9.078;2023-03-21T12:21:22;3.73;;;2.90;;
2299;SDS011;1158;48.750;9.078;2023-03-21T12:23:57;6.20;;;3.07;;
2299;SDS011;1158;48.750;9.078;2023-03-21T12:26:30;4.87;;;2.47;;
2299;SDS011;1158;48.750;9.078;2023-03-21T12:29:10;8.37;;;3.50;;
2299;SDS011;1158;48.750;9.078;2023-03-21T12:31:53;6.40;;;3.10;;
2299;SDS011;1158;48.750;9.078;2023-03-21T12:34:33;4.20;;;3.03;;
2299;SDS011;1158;48.750;9.078;2023-03-21T12:37:15;4.10;;;2.73;;
2299;SDS011;1158;48.750;9.078;2023-03-21T12:39:48;6.37;;;3.33;;
2299;SDS011;1158;48.750;9.078;2023-03-21T12:45:13;3.53;;;2.60;;
2299;SDS011;1158;48.750;9.078;2023-03-21T12:47:44;4.20;;;2.90;;
2299;SDS011;1158;48.750;9.078;2023-03-21T12:50:16;4.40;;;2.77;;
2299;SDS011;1158;48.750;9.078;2023-03-21T12:52:48;4.43;;;2.37;;
2299;SDS011;1158;48.750;9.078;2023-03-21T12:55:19;3.33;;;2.50;;
2299;SDS011;1158;48.750;9.078;2023-03-21T12:57:51;4.80;;;2.20;;
2299;SDS011;1158;48.750;9.078;2023-03-21T13:00:24;4.53;;;2.63;;
2299;SDS011;1158;48.750;9.078;2023-03-21T13:02:58;3.50;;;2.23;;
2299;SDS011;1158;48.750;9.078;2023-03-21T13:05:28;3.23;;;2.30;;
2299;SDS011;1158;48.750;9.078;2023-03-21T13:07:58;3.47;;;2.10;;
2299;SDS011;1158;48.750;9.078;2023-03-21T13:25:17;2.93;;;1.90;;
2299;SDS011;1158;48.750;9.078;2023-03-21T13:27:49;2.60;;;1.80;;
2299;SDS011;1158;48.750;9.078;2023-03-21T13:30:18;3.27;;;2.03;;
2299;SDS011;1158;48.750;9.078;2023-03-21T13:32:47;2.80;;;1.57;;
2299;SDS011;1158;48.750;9.078;2023-03-21T13:35:17;2.70;;;1.63;;
2299;SDS011;1158;48.750;9.078;2023-03-21T13:37:48;4.17;;;1.67;;
2299;SDS011;1158;48.750;9.078;2023-03-21T13:40:21;3.43;;;1.60;;
2299;SDS011;1158;48.750;9.078;2023-03-21T13:42:51;2.87;;;1.50;;
2299;SDS011;1158;48.750;9.078;2023-03-21T13:45:26;2.93;;;1.60;;
2299;SDS011;1158;48.750;9.078;2023-03-21T13:47:56;3.63;;;1.90;;
2299;SDS011;1158;48.750;9.078;2023-03-21T13:53:21;3.77;;;1.70;;
2299;SDS011;1158;48.750;9.078;2023-03-21T13:56:06;4.93;;;1.90;;
2299;SDS011;1158;48.750;9.078;2023-03-21T13:58:51;2.90;;;1.77;;
2299;SDS011;1158;48.750;9.078;2023-03-21T14:01:33;5.60;;;2.50;;
2299;SDS011;1158;48.750;9.078;2023-03-21T14:04:04;3.03;;;1.70;;
2299;SDS011;1158;48.750;9.078;2023-03-21T14:06:37;4.00;;;1.93;;
2299;SDS011;1158;48.750;9.078;2023-03-21T14:09:10;2.67;;;1.93;;
2299;SDS011;1158;48.750;9.078;2023-03-21T14:11:45;2.30;;;1.60;;
2299;SDS011;1158;48.750;9.078;2023-03-21T14:14:14;2.43;;;1.97;;
2299;SDS011;1158;48.750;9.078;2023-03-21T14:16:42;2.43;;;1.53;;
2299;SDS011;1158;48.750;9.078;2023-03-21T14:19:09;2.50;;;1.70;;
2299;SDS011;1158;48.750;9.078;2023-03-21T14:21:36;2.40;;;1.83;;
2299;SDS011;1158;48.750;9.078;2023-03-21T14:24:11;2.80;;;1.80;;
2299;SDS011;1158;48.750;9.078;2023-03-21T14:26:39;4.80;;;2.10;;
2299;SDS011;1158;48.750;9.078;2023-03-21T14:29:12;4.07;;;2.20;;
2299;SDS011;1158;48.750;9.078;2023-03-21T14:31:44;3.50;;;2.30;;
2299;SDS011;1158;48.750;9.078;2023-03-21T14:34:13;3.77;;;2.33;;
2299;SDS011;1158;48.750;9.078;2023-03-21T14:36:41;3.50;;;2.40;;
2299;SDS011;1158;48.750;9.078;2023-03-21T14:39:11;5.40;;;2.40;;
2299;SDS011;1158;48.750;9.078;2023-03-21T14:41:44;3.30;;;1.93;;
2299;SDS011;1158;48.750;9.078;2023-03-21T14:44:16;5.73;;;2.47;;
2299;SDS011;1158;48.750;9.078;2023-03-21T14:46:50;5.43;;;2.27;;
2299;SDS011;1158;48.750;9.078;2023-03-21T14:49:20;3.03;;;2.17;;
2299;SDS011;1158;48.750;9.078;2023-03-21T14:51:55;3.30;;;2.17;;
2299;SDS011;1158;48.750;9.078;2023-03-21T14:54:24;7.00;;;2.50;;
2299;SDS011;1158;48.750;9.078;2023-03-21T14:56:53;3.67;;;2.03;;
2299;SDS011;1158;48.750;9.078;2023-03-21T14:59:27;3.57;;;2.67;;
2299;SDS011;1158;48.750;9.078;2023-03-21T15:01:58;4.70;;;2.47;;
2299;SDS011;1158;48.750;9.078;2023-03-21T15:04:27;2.73;;;2.20;;
2299;SDS011;1158;48.750;9.078;2023-03-21T15:06:56;4.53;;;2.60;;
2299;SDS011;1158;48.750;9.078;2023-03-21T15:09:26;4.53;;;2.53;;
2299;SDS011;1158;48.750;9.078;2023-03-21T15:11:55;4.73;;;2.47;;
2299;SDS011;1158;48.750;9.078;2023-03-21T15:14:28;5.20;;;2.30;;
2299;SDS011;1158;48.750;9.078;2023-03-21T15:16:58;5.17;;;2.60;;
2299;SDS011;1158;48.750;9.078;2023-03-21T15:19:29;3.90;;;2.50;;
2299;SDS011;1158;48.750;9.078;2023-03-21T15:22:00;6.60;;;2.83;;
2299;SDS011;1158;48.750;9.078;2023-03-21T15:24:34;7.90;;;3.30;;
2299;SDS011;1158;48.750;9.078;2023-03-21T15:27:05;7.73;;;3.27;;
2299;SDS011;1158;48.750;9.078;2023-03-21T15:29:34;4.20;;;2.83;;
2299;SDS011;1158;48.750;9.078;2023-03-21T15:32:05;3.63;;;2.53;;
2299;SDS011;1158;48.750;9.078;2023-03-21T15:34:37;6.83;;;3.30;;
2299;SDS011;1158;48.750;9.078;2023-03-21T15:37:06;6.97;;;3.00;;
2299;SDS011;1158;48.750;9.078;2023-03-21T15:39:39;7.37;;;3.30;;
2299;SDS011;1158;48.750;9.078;2023-03-21T15:42:21;8.03;;;3.33;;
2299;SDS011;1158;48.750;9.078;2023-03-21T15:44:55;8.50;;;4.00;;
2299;SDS011;1158;48.750;9.078;2023-03-21T15:47:39;6.00;;;3.40;;
2299;SDS011;1158;48.750;9.078;2023-03-21T15:50:20;4.33;;;2.77;;
2299;SDS011;1158;48.750;9.078;2023-03-21T15:52:50;6.03;;;3.87;;
2299;SDS011;1158;48.750;9.078;2023-03-21T15:55:19;11.13;;;3.10;;
2299;SDS011;1158;48.750;9.078;2023-03-21T15:57:51;6.53;;;3.63;;
2299;SDS011;1158;48.750;9.078;2023-03-21T16:00:21;7.27;;;3.10;;
2299;SDS011;1158;48.750;9.078;2023-03-21T16:02:53;6.97;;;3.73;;